Greeley, Colorado
Current Conditions -  °F | °C
As of 11:15 PM on Sunday 25 Jan 2015 (Local Time) from KGXY Reporting Station
Clear Clear  
Wind Chill: 22°   Ceiling: Unl
Heat Index: 28°   Visibility: 10mi
Dew Point: 21°   Wind: 6mph
Humidity: 74%   Direction: 300°WNW
Pressure: 30.19"   Gusts: NA
Location:  40.42°N, 104.69°W
Report Text: KGXY 260615Z AUTO 30005KT 10SM CLR M02/M06 A3019 RMK AO1
Loading
Personal Weather Stations






























Interactive Weather Map New forecast layout! Learn more

10-Day Weather Forecast

Advertisements
Track Severe Weather on mobile